sensor_id;sensor_type;location;lat;lon;timestamp;pressure;altitude;pressure_sealevel;temperature;humidity
21706;BME280;11014;53.076;18.208;2023-04-06T00:00:57;102074.72;;;2.13;57.68
21706;BME280;11014;53.076;18.208;2023-04-06T00:03:26;102068.59;;;2.13;57.48
21706;BME280;11014;53.076;18.208;2023-04-06T00:05:54;102065.78;;;2.14;57.83
21706;BME280;11014;53.076;18.208;2023-04-06T00:08:24;102067.47;;;2.15;57.72
21706;BME280;11014;53.076;18.208;2023-04-06T00:10:52;102068.31;;;2.16;57.70
21706;BME280;11014;53.076;18.208;2023-04-06T00:13:21;102071.78;;;2.16;57.61
21706;BME280;11014;53.076;18.208;2023-04-06T00:15:49;102067.19;;;2.18;57.58
21706;BME280;11014;53.076;18.208;2023-04-06T00:18:18;102072.19;;;2.21;57.87
21706;BME280;11014;53.076;18.208;2023-04-06T00:20:47;102072.91;;;2.23;57.74
21706;BME280;11014;53.076;18.208;2023-04-06T00:23:16;102075.56;;;2.23;58.00
21706;BME280;11014;53.076;18.208;2023-04-06T00:25:45;102066.75;;;2.23;58.03
21706;BME280;11014;53.076;18.208;2023-04-06T00:28:14;102072.75;;;2.25;57.81
21706;BME280;11014;53.076;18.208;2023-04-06T00:30:42;102076.81;;;2.29;57.88
21706;BME280;11014;53.076;18.208;2023-04-06T00:33:11;102074.69;;;2.32;57.92
21706;BME280;11014;53.076;18.208;2023-04-06T00:35:40;102072.59;;;2.36;58.22
21706;BME280;11014;53.076;18.208;2023-04-06T00:38:08;102069.66;;;2.39;58.00
21706;BME280;11014;53.076;18.208;2023-04-06T00:40:37;102065.22;;;2.39;58.04
21706;BME280;11014;53.076;18.208;2023-04-06T00:43:07;102065.22;;;2.39;58.17
21706;BME280;11014;53.076;18.208;2023-04-06T00:45:40;102073.44;;;2.36;58.16
21706;BME280;11014;53.076;18.208;2023-04-06T00:48:09;102063.41;;;2.30;58.27
21706;BME280;11014;53.076;18.208;2023-04-06T00:50:37;102063.69;;;2.27;58.44
21706;BME280;11014;53.076;18.208;2023-04-06T00:53:05;102061.31;;;2.24;58.43
21706;BME280;11014;53.076;18.208;2023-04-06T00:55:34;102055.59;;;2.19;58.51
21706;BME280;11014;53.076;18.208;2023-04-06T00:58:04;102060.50;;;2.14;58.68
21706;BME280;11014;53.076;18.208;2023-04-06T01:00:41;102064.69;;;2.07;58.59
21706;BME280;11014;53.076;18.208;2023-04-06T01:03:16;102062.44;;;2.03;58.52
21706;BME280;11014;53.076;18.208;2023-04-06T01:05:45;102058.81;;;1.94;58.94
21706;BME280;11014;53.076;18.208;2023-04-06T01:08:25;102063.00;;;1.87;58.77
21706;BME280;11014;53.076;18.208;2023-04-06T01:11:00;102059.94;;;1.82;58.84
21706;BME280;11014;53.076;18.208;2023-04-06T01:13:30;102063.00;;;1.77;59.14
21706;BME280;11014;53.076;18.208;2023-04-06T01:16:02;102055.47;;;1.73;58.98
21706;BME280;11014;53.076;18.208;2023-04-06T01:18:54;102053.09;;;1.70;59.37
21706;BME280;11014;53.076;18.208;2023-04-06T01:21:28;102060.88;;;1.62;59.22
21706;BME280;11014;53.076;18.208;2023-04-06T01:24:17;102053.47;;;1.56;59.39
21706;BME280;11014;53.076;18.208;2023-04-06T01:26:59;102056.44;;;1.53;59.65
21706;BME280;11014;53.076;18.208;2023-04-06T01:29:39;102058.78;;;1.46;59.92
21706;BME280;11014;53.076;18.208;2023-04-06T01:32:13;102055.44;;;1.44;60.06
21706;BME280;11014;53.076;18.208;2023-04-06T01:34:49;102055.56;;;1.43;60.12
21706;BME280;11014;53.076;18.208;2023-04-06T01:37:18;102057.38;;;1.42;60.18
21706;BME280;11014;53.076;18.208;2023-04-06T01:39:46;102054.88;;;1.41;60.34
21706;BME280;11014;53.076;18.208;2023-04-06T01:42:26;102054.88;;;1.41;60.13
21706;BME280;11014;53.076;18.208;2023-04-06T01:44:55;102055.72;;;1.41;60.10
21706;BME280;11014;53.076;18.208;2023-04-06T01:47:24;102051.25;;;1.42;60.26
21706;BME280;11014;53.076;18.208;2023-04-06T01:49:52;102058.94;;;1.45;60.08
21706;BME280;11014;53.076;18.208;2023-04-06T01:52:21;102052.63;;;1.46;60.08
21706;BME280;11014;53.076;18.208;2023-04-06T01:54:53;102055.97;;;1.48;60.08
21706;BME280;11014;53.076;18.208;2023-04-06T01:57:40;102052.63;;;1.46;60.16
21706;BME280;11014;53.076;18.208;2023-04-06T02:00:17;102057.38;;;1.42;60.43
21706;BME280;11014;53.076;18.208;2023-04-06T02:02:52;102056.81;;;1.39;60.42
21706;BME280;11014;53.076;18.208;2023-04-06T02:05:26;102058.47;;;1.40;60.76
21706;BME280;11014;53.076;18.208;2023-04-06T02:07:56;102057.50;;;1.41;60.71
21706;BME280;11014;53.076;18.208;2023-04-06T02:10:34;102057.09;;;1.45;60.74
21706;BME280;11014;53.076;18.208;2023-04-06T02:13:10;102057.66;;;1.49;60.37
21706;BME280;11014;53.076;18.208;2023-04-06T02:15:41;102054.06;;;1.50;60.42
21706;BME280;11014;53.076;18.208;2023-04-06T02:18:11;102056.44;;;1.53;60.42
21706;BME280;11014;53.076;18.208;2023-04-06T02:20:42;102051.56;;;1.58;60.78
21706;BME280;11014;53.076;18.208;2023-04-06T02:23:11;102049.91;;;1.66;60.72
21706;BME280;11014;53.076;18.208;2023-04-06T02:25:40;102056.16;;;1.75;60.31
21706;BME280;11014;53.076;18.208;2023-04-06T02:28:11;102052.97;;;1.81;60.27
21706;BME280;11014;53.076;18.208;2023-04-06T02:30:42;102049.06;;;1.85;60.49
21706;BME280;11014;53.076;18.208;2023-04-06T02:33:11;102052.41;;;1.87;60.23
21706;BME280;11014;53.076;18.208;2023-04-06T02:35:44;102055.63;;;1.91;60.51
21706;BME280;11014;53.076;18.208;2023-04-06T02:38:13;102056.47;;;1.91;60.47
21706;BME280;11014;53.076;18.208;2023-04-06T02:40:42;102057.00;;;1.95;60.40
21706;BME280;11014;53.076;18.208;2023-04-06T02:43:21;102059.94;;;2.01;60.30
21706;BME280;11014;53.076;18.208;2023-04-06T02:45:54;102058.66;;;2.05;60.20
21706;BME280;11014;53.076;18.208;2023-04-06T02:48:24;102064.09;;;2.13;60.30
21706;BME280;11014;53.076;18.208;2023-04-06T02:50:53;102057.56;;;2.17;60.05
21706;BME280;11014;53.076;18.208;2023-04-06T02:53:22;102061.59;;;2.21;60.23
21706;BME280;11014;53.076;18.208;2023-04-06T02:55:52;102061.03;;;2.27;60.10
21706;BME280;11014;53.076;18.208;2023-04-06T02:58:21;102067.72;;;2.31;60.00
21706;BME280;11014;53.076;18.208;2023-04-06T03:00:56;102064.09;;;2.32;60.09
21706;BME280;11014;53.076;18.208;2023-04-06T03:03:25;102069.94;;;2.36;60.19
21706;BME280;11014;53.076;18.208;2023-04-06T03:05:55;102066.06;;;2.40;59.89
21706;BME280;11014;53.076;18.208;2023-04-06T03:08:29;102067.41;;;2.44;60.16
21706;BME280;11014;53.076;18.208;2023-04-06T03:10:59;102069.38;;;2.42;60.04
21706;BME280;11014;53.076;18.208;2023-04-06T03:13:36;102067.56;;;2.43;60.25
21706;BME280;11014;53.076;18.208;2023-04-06T03:16:07;102064.47;;;2.57;59.89
21706;BME280;11014;53.076;18.208;2023-04-06T03:18:36;102070.34;;;2.51;59.84
21706;BME280;11014;53.076;18.208;2023-04-06T03:21:04;102068.53;;;2.51;59.63
21706;BME280;11014;53.076;18.208;2023-04-06T03:23:44;102076.75;;;2.58;59.70
21706;BME280;11014;53.076;18.208;2023-04-06T03:26:14;102062.50;;;2.59;59.76
21706;BME280;11014;53.076;18.208;2023-04-06T03:28:42;102066.97;;;2.58;60.00
21706;BME280;11014;53.076;18.208;2023-04-06T03:31:11;102064.59;;;2.55;59.97
21706;BME280;11014;53.076;18.208;2023-04-06T03:33:55;102062.81;;;2.56;60.00
21706;BME280;11014;53.076;18.208;2023-04-06T03:36:34;102063.19;;;2.61;59.81
21706;BME280;11014;53.076;18.208;2023-04-06T03:39:04;102067.38;;;2.63;59.70
21706;BME280;11014;53.076;18.208;2023-04-06T03:41:36;102062.63;;;2.67;59.87
21706;BME280;11014;53.076;18.208;2023-04-06T03:44:12;102069.91;;;2.65;59.69
21706;BME280;11014;53.076;18.208;2023-04-06T03:46:41;102065.84;;;2.61;60.11
21706;BME280;11014;53.076;18.208;2023-04-06T03:49:11;102070.19;;;2.62;59.82
21706;BME280;11014;53.076;18.208;2023-04-06T03:51:43;102077.88;;;2.65;59.75
21706;BME280;11014;53.076;18.208;2023-04-06T03:54:12;102074.09;;;2.67;59.88
21706;BME280;11014;53.076;18.208;2023-04-06T03:56:41;102076.88;;;2.66;59.83
21706;BME280;11014;53.076;18.208;2023-04-06T03:59:09;102085.09;;;2.63;59.91
21706;BME280;11014;53.076;18.208;2023-04-06T04:01:38;102088.47;;;2.65;59.67
21706;BME280;11014;53.076;18.208;2023-04-06T04:04:07;102078.56;;;2.67;59.91
21706;BME280;11014;53.076;18.208;2023-04-06T04:06:36;102083.56;;;2.70;60.01
21706;BME280;11014;53.076;18.208;2023-04-06T04:09:07;102082.44;;;2.72;59.81
21706;BME280;11014;53.076;18.208;2023-04-06T04:11:36;102086.63;;;2.75;59.86
21706;BME280;11014;53.076;18.208;2023-04-06T04:14:06;102087.03;;;2.80;60.03
21706;BME280;11014;53.076;18.208;2023-04-06T04:16:35;102092.19;;;2.81;59.87
21706;BME280;11014;53.076;18.208;2023-04-06T04:19:03;102098.03;;;2.85;60.22
21706;BME280;11014;53.076;18.208;2023-04-06T04:21:32;102099.72;;;2.86;60.19
21706;BME280;11014;53.076;18.208;2023-04-06T04:24:07;102092.88;;;2.83;60.50
21706;BME280;11014;53.076;18.208;2023-04-06T04:26:37;102089.09;;;2.86;60.35
21706;BME280;11014;53.076;18.208;2023-04-06T04:29:07;102092.72;;;2.94;60.23
21706;BME280;11014;53.076;18.208;2023-04-06T04:31:37;102091.97;;;3.02;60.35
21706;BME280;11014;53.076;18.208;2023-04-06T04:34:14;102097.41;;;3.10;59.97
21706;BME280;11014;53.076;18.208;2023-04-06T04:36:43;102096.81;;;3.16;59.98
21706;BME280;11014;53.076;18.208;2023-04-06T04:39:17;102085.63;;;3.22;59.96
21706;BME280;11014;53.076;18.208;2023-04-06T04:41:51;102087.28;;;3.23;60.05
21706;BME280;11014;53.076;18.208;2023-04-06T04:44:19;102087.28;;;3.23;60.19
21706;BME280;11014;53.076;18.208;2023-04-06T04:46:48;102093.97;;;3.27;60.00
21706;BME280;11014;53.076;18.208;2023-04-06T04:49:19;102092.97;;;3.28;60.05
21706;BME280;11014;53.076;18.208;2023-04-06T04:51:50;102089.50;;;3.28;60.07
21706;BME280;11014;53.076;18.208;2023-04-06T04:54:27;102093.34;;;3.33;60.12
21706;BME280;11014;53.076;18.208;2023-04-06T04:56:57;102090.41;;;3.36;60.35
21706;BME280;11014;53.076;18.208;2023-04-06T04:59:38;102096.16;;;3.41;60.40
21706;BME280;11014;53.076;18.208;2023-04-06T05:02:16;102102.69;;;3.47;60.27
21706;BME280;11014;53.076;18.208;2023-04-06T05:05:07;102103.59;;;3.55;60.25
21706;BME280;11014;53.076;18.208;2023-04-06T05:07:37;102101.84;;;3.64;60.31
21706;BME280;11014;53.076;18.208;2023-04-06T05:10:08;102097.63;;;3.71;60.27
21706;BME280;11014;53.076;18.208;2023-04-06T05:12:45;102110.16;;;3.79;60.53
21706;BME280;11014;53.076;18.208;2023-04-06T05:15:14;102110.84;;;3.81;60.42
21706;BME280;11014;53.076;18.208;2023-04-06T05:17:43;102097.94;;;3.86;60.30
21706;BME280;11014;53.076;18.208;2023-04-06T05:20:15;102100.84;;;3.92;60.34
21706;BME280;11014;53.076;18.208;2023-04-06T05:22:49;102101.09;;;3.99;60.32
21706;BME280;11014;53.076;18.208;2023-04-06T05:25:20;102102.81;;;4.08;60.30
21706;BME280;11014;53.076;18.208;2023-04-06T05:27:53;102105.16;;;4.11;59.93
21706;BME280;11014;53.076;18.208;2023-04-06T05:30:33;102113.53;;;4.16;59.92
21706;BME280;11014;53.076;18.208;2023-04-06T05:33:04;102108.56;;;4.21;59.92
21706;BME280;11014;53.076;18.208;2023-04-06T05:35:47;102103.66;;;4.26;60.22
21706;BME280;11014;53.076;18.208;2023-04-06T05:38:15;102113.16;;;4.29;60.20
21706;BME280;11014;53.076;18.208;2023-04-06T05:40:43;102108.34;;;4.32;60.46
21706;BME280;11014;53.076;18.208;2023-04-06T05:43:15;102104.59;;;4.43;60.42
21706;BME280;11014;53.076;18.208;2023-04-06T05:45:48;102113.97;;;4.29;60.23
21706;BME280;11014;53.076;18.208;2023-04-06T05:48:17;102107.00;;;4.28;60.62
21706;BME280;11014;53.076;18.208;2023-04-06T05:50:49;102101.38;;;4.31;60.71
21706;BME280;11014;53.076;18.208;2023-04-06T05:53:32;102106.44;;;4.42;60.50
21706;BME280;11014;53.076;18.208;2023-04-06T05:56:02;102096.53;;;4.52;60.65
21706;BME280;11014;53.076;18.208;2023-04-06T05:58:31;102109.41;;;4.65;60.78
21706;BME280;11014;53.076;18.208;2023-04-06T06:01:01;102094.34;;;4.73;60.54
21706;BME280;11014;53.076;18.208;2023-04-06T06:03:38;102103.41;;;4.81;60.40
21706;BME280;11014;53.076;18.208;2023-04-06T06:06:07;102103.06;;;4.84;60.77
21706;BME280;11014;53.076;18.208;2023-04-06T06:08:56;102101.66;;;4.97;60.46
21706;BME280;11014;53.076;18.208;2023-04-06T06:11:31;102106.19;;;5.05;60.28
21706;BME280;11014;53.076;18.208;2023-04-06T06:14:02;102103.88;;;5.10;60.38
21706;BME280;11014;53.076;18.208;2023-04-06T06:16:34;102096.63;;;5.28;60.36
21706;BME280;11014;53.076;18.208;2023-04-06T06:19:03;102109.25;;;5.18;60.39
21706;BME280;11014;53.076;18.208;2023-04-06T06:21:33;102103.94;;;5.18;60.67
21706;BME280;11014;53.076;18.208;2023-04-06T06:24:02;102102.59;;;5.22;60.64
21706;BME280;11014;53.076;18.208;2023-04-06T06:26:30;102099.31;;;5.28;61.01
21706;BME280;11014;53.076;18.208;2023-04-06T06:29:00;102102.84;;;5.36;61.08
21706;BME280;11014;53.076;18.208;2023-04-06T06:31:29;102100.38;;;5.43;61.08
21706;BME280;11014;53.076;18.208;2023-04-06T06:33:58;102107.34;;;5.44;61.02
21706;BME280;11014;53.076;18.208;2023-04-06T06:36:26;102104.72;;;5.52;61.05
21706;BME280;11014;53.076;18.208;2023-04-06T06:38:55;102100.09;;;5.62;61.27
21706;BME280;11014;53.076;18.208;2023-04-06T06:41:25;102102.16;;;5.76;61.18
21706;BME280;11014;53.076;18.208;2023-04-06T06:43:55;102108.19;;;5.86;60.88
21706;BME280;11014;53.076;18.208;2023-04-06T06:46:23;102097.22;;;5.97;60.76
21706;BME280;11014;53.076;18.208;2023-04-06T06:48:52;102097.75;;;6.09;60.76
21706;BME280;11014;53.076;18.208;2023-04-06T06:51:20;102105.91;;;6.24;61.10
21706;BME280;11014;53.076;18.208;2023-04-06T06:53:49;102103.56;;;6.37;60.85
21706;BME280;11014;53.076;18.208;2023-04-06T06:56:17;102098.22;;;6.45;60.82
21706;BME280;11014;53.076;18.208;2023-04-06T06:58:46;102096.06;;;6.56;60.35
21706;BME280;11014;53.076;18.208;2023-04-06T07:01:14;102092.88;;;6.69;60.18
21706;BME280;11014;53.076;18.208;2023-04-06T07:03:43;102100.69;;;6.87;59.88
21706;BME280;11014;53.076;18.208;2023-04-06T07:06:11;102088.97;;;7.04;59.59
21706;BME280;11014;53.076;18.208;2023-04-06T07:08:41;102096.25;;;7.18;58.74
21706;BME280;11014;53.076;18.208;2023-04-06T07:11:09;102100.09;;;7.24;58.42
21706;BME280;11014;53.076;18.208;2023-04-06T07:13:38;102093.34;;;7.36;57.88
21706;BME280;11014;53.076;18.208;2023-04-06T07:16:06;102094.09;;;7.52;57.72
21706;BME280;11014;53.076;18.208;2023-04-06T07:18:35;102090.88;;;7.65;57.46
21706;BME280;11014;53.076;18.208;2023-04-06T07:21:04;102085.94;;;7.76;56.87
21706;BME280;11014;53.076;18.208;2023-04-06T07:23:33;102093.88;;;7.93;56.53
21706;BME280;11014;53.076;18.208;2023-04-06T07:26:01;102087.59;;;8.08;54.71
21706;BME280;11014;53.076;18.208;2023-04-06T07:28:31;102086.78;;;8.22;53.39
21706;BME280;11014;53.076;18.208;2023-04-06T07:31:01;102087.88;;;8.36;51.75
21706;BME280;11014;53.076;18.208;2023-04-06T07:33:30;102079.81;;;8.44;50.50
21706;BME280;11014;53.076;18.208;2023-04-06T07:35:59;102079.34;;;8.55;50.15
21706;BME280;11014;53.076;18.208;2023-04-06T07:38:28;102084.72;;;8.70;49.88
21706;BME280;11014;53.076;18.208;2023-04-06T07:40:57;102069.59;;;8.77;49.98
21706;BME280;11014;53.076;18.208;2023-04-06T07:43:26;102073.47;;;8.89;49.17
21706;BME280;11014;53.076;18.208;2023-04-06T07:45:56;102074.41;;;8.96;47.52
21706;BME280;11014;53.076;18.208;2023-04-06T07:48:26;102064.72;;;9.10;46.63
21706;BME280;11014;53.076;18.208;2023-04-06T07:51:01;102067.72;;;9.21;44.77
21706;BME280;11014;53.076;18.208;2023-04-06T07:53:31;102064.69;;;9.24;43.58
21706;BME280;11014;53.076;18.208;2023-04-06T07:55:59;102059.41;;;9.16;42.70
21706;BME280;11014;53.076;18.208;2023-04-06T07:58:28;102061.47;;;9.14;42.78
21706;BME280;11014;53.076;18.208;2023-04-06T08:00:56;102065.16;;;9.13;42.21
21706;BME280;11014;53.076;18.208;2023-04-06T08:03:26;102071.63;;;9.19;42.59
21706;BME280;11014;53.076;18.208;2023-04-06T08:05:54;102064.13;;;9.29;42.06
21706;BME280;11014;53.076;18.208;2023-04-06T08:08:23;102070.50;;;9.42;42.42
21706;BME280;11014;53.076;18.208;2023-04-06T08:10:51;102066.41;;;9.46;40.25
21706;BME280;11014;53.076;18.208;2023-04-06T08:13:20;102066.66;;;9.51;40.25
21706;BME280;11014;53.076;18.208;2023-04-06T08:15:49;102077.28;;;9.60;40.21
21706;BME280;11014;53.076;18.208;2023-04-06T08:18:17;102073.47;;;9.69;39.89
21706;BME280;11014;53.076;18.208;2023-04-06T08:20:49;102064.91;;;9.59;37.92
21706;BME280;11014;53.076;18.208;2023-04-06T08:23:18;102070.72;;;9.62;37.55
21706;BME280;11014;53.076;18.208;2023-04-06T08:26:12;102071.19;;;9.66;37.75
21706;BME280;11014;53.076;18.208;2023-04-06T08:28:41;102072.19;;;9.65;37.47
21706;BME280;11014;53.076;18.208;2023-04-06T08:31:12;102072.84;;;9.67;36.85
21706;BME280;11014;53.076;18.208;2023-04-06T08:33:41;102065.44;;;9.69;37.61
21706;BME280;11014;53.076;18.208;2023-04-06T08:36:11;102063.53;;;9.84;38.31
21706;BME280;11014;53.076;18.208;2023-04-06T08:38:40;102073.63;;;10.03;37.99
21706;BME280;11014;53.076;18.208;2023-04-06T08:41:13;102080.91;;;10.24;38.48
21706;BME280;11014;53.076;18.208;2023-04-06T08:43:57;102071.97;;;10.44;38.15
21706;BME280;11014;53.076;18.208;2023-04-06T08:46:27;102069.16;;;10.52;37.68
21706;BME280;11014;53.076;18.208;2023-04-06T08:49:01;102068.81;;;10.62;37.86
21706;BME280;11014;53.076;18.208;2023-04-06T08:51:30;102066.66;;;10.79;38.55
21706;BME280;11014;53.076;18.208;2023-04-06T08:53:59;102069.88;;;10.95;38.81
21706;BME280;11014;53.076;18.208;2023-04-06T08:56:28;102073.06;;;11.12;37.42
21706;BME280;11014;53.076;18.208;2023-04-06T08:58:57;102062.78;;;11.22;37.88
21706;BME280;11014;53.076;18.208;2023-04-06T09:01:27;102065.09;;;11.31;37.96
21706;BME280;11014;53.076;18.208;2023-04-06T09:03:58;102064.50;;;11.36;36.46
21706;BME280;11014;53.076;18.208;2023-04-06T09:06:28;102073.81;;;11.40;37.18
21706;BME280;11014;53.076;18.208;2023-04-06T09:08:57;102069.06;;;11.42;37.05
21706;BME280;11014;53.076;18.208;2023-04-06T09:11:26;102067.03;;;11.51;36.83
21706;BME280;11014;53.076;18.208;2023-04-06T09:13:55;102067.47;;;11.54;36.93
21706;BME280;11014;53.076;18.208;2023-04-06T09:16:25;102065.59;;;11.55;36.71
21706;BME280;11014;53.076;18.208;2023-04-06T09:18:54;102067.28;;;11.62;36.15
21706;BME280;11014;53.076;18.208;2023-04-06T09:21:22;102063.34;;;11.58;35.34
21706;BME280;11014;53.076;18.208;2023-04-06T09:24:00;102060.00;;;11.56;35.59
21706;BME280;11014;53.076;18.208;2023-04-06T09:26:29;102061.09;;;11.68;35.21
21706;BME280;11014;53.076;18.208;2023-04-06T09:28:58;102056.56;;;11.75;35.38
21706;BME280;11014;53.076;18.208;2023-04-06T09:31:32;102059.91;;;11.77;34.52
21706;BME280;11014;53.076;18.208;2023-04-06T09:34:01;102065.06;;;11.72;34.67
21706;BME280;11014;53.076;18.208;2023-04-06T09:36:35;102059.88;;;11.71;34.95
21706;BME280;11014;53.076;18.208;2023-04-06T09:39:04;102060.66;;;11.65;34.56
21706;BME280;11014;53.076;18.208;2023-04-06T09:41:34;102058.03;;;11.71;34.76
21706;BME280;11014;53.076;18.208;2023-04-06T09:44:11;102057.81;;;11.73;34.57
21706;BME280;11014;53.076;18.208;2023-04-06T09:46:41;102063.41;;;11.71;34.56
21706;BME280;11014;53.076;18.208;2023-04-06T09:49:30;102056.16;;;11.78;34.95
21706;BME280;11014;53.076;18.208;2023-04-06T09:52:00;102056.78;;;11.80;34.07
21706;BME280;11014;53.076;18.208;2023-04-06T09:54:31;102060.53;;;11.79;34.24
21706;BME280;11014;53.076;18.208;2023-04-06T09:57:07;102059.69;;;11.79;34.69
21706;BME280;11014;53.076;18.208;2023-04-06T10:00:09;102052.03;;;11.76;33.98
21706;BME280;11014;53.076;18.208;2023-04-06T10:02:51;102053.69;;;11.77;35.01
21706;BME280;11014;53.076;18.208;2023-04-06T10:05:46;102039.22;;;11.91;35.76
21706;BME280;11014;53.076;18.208;2023-04-06T10:08:19;102038.63;;;12.09;34.76
21706;BME280;11014;53.076;18.208;2023-04-06T10:10:50;102042.56;;;12.19;34.30
21706;BME280;11014;53.076;18.208;2023-04-06T10:13:19;102038.84;;;12.20;34.53
21706;BME280;11014;53.076;18.208;2023-04-06T10:15:48;102041.97;;;12.24;34.33
21706;BME280;11014;53.076;18.208;2023-04-06T10:18:20;102032.19;;;12.36;32.78
21706;BME280;11014;53.076;18.208;2023-04-06T10:23:47;102033.47;;;12.20;32.96
21706;BME280;11014;53.076;18.208;2023-04-06T10:26:19;102032.22;;;12.23;34.59
21706;BME280;11014;53.076;18.208;2023-04-06T10:28:49;102026.81;;;12.36;34.90
21706;BME280;11014;53.076;18.208;2023-04-06T10:31:26;102016.44;;;12.46;34.33
21706;BME280;11014;53.076;18.208;2023-04-06T10:33:56;102021.00;;;12.52;35.09
21706;BME280;11014;53.076;18.208;2023-04-06T10:36:28;102024.91;;;12.69;35.34
21706;BME280;11014;53.076;18.208;2023-04-06T10:39:04;102014.28;;;12.87;33.78
21706;BME280;11014;53.076;18.208;2023-04-06T10:41:42;102008.84;;;13.00;34.04
21706;BME280;11014;53.076;18.208;2023-04-06T10:44:20;102006.94;;;13.21;35.54
21706;BME280;11014;53.076;18.208;2023-04-06T10:46:55;102008.28;;;13.49;35.26
21706;BME280;11014;53.076;18.208;2023-04-06T10:49:24;102003.78;;;13.68;35.25
21706;BME280;11014;53.076;18.208;2023-04-06T10:51:56;101996.91;;;13.72;33.48
21706;BME280;11014;53.076;18.208;2023-04-06T10:54:26;101992.66;;;13.83;32.44
21706;BME280;11014;53.076;18.208;2023-04-06T10:56:55;101998.13;;;13.76;33.21
21706;BME280;11014;53.076;18.208;2023-04-06T10:59:28;101992.13;;;13.74;31.72
21706;BME280;11014;53.076;18.208;2023-04-06T11:01:57;101991.06;;;13.75;32.02
21706;BME280;11014;53.076;18.208;2023-04-06T11:04:25;101983.84;;;13.94;32.83
21706;BME280;11014;53.076;18.208;2023-04-06T11:06:54;101981.06;;;13.82;30.70
21706;BME280;11014;53.076;18.208;2023-04-06T11:09:27;101979.59;;;13.55;31.06
21706;BME280;11014;53.076;18.208;2023-04-06T11:11:56;101981.38;;;13.61;33.28
21706;BME280;11014;53.076;18.208;2023-04-06T11:14:25;101974.59;;;13.83;33.96
21706;BME280;11014;53.076;18.208;2023-04-06T11:16:55;101967.94;;;14.10;32.69
21706;BME280;11014;53.076;18.208;2023-04-06T11:19:24;101969.47;;;14.24;32.10
21706;BME280;11014;53.076;18.208;2023-04-06T11:21:52;101969.22;;;14.33;33.10
21706;BME280;11014;53.076;18.208;2023-04-06T11:24:24;101968.94;;;14.41;31.60
21706;BME280;11014;53.076;18.208;2023-04-06T11:26:54;101961.13;;;14.33;32.61
21706;BME280;11014;53.076;18.208;2023-04-06T11:29:26;101963.69;;;14.46;33.29
21706;BME280;11014;53.076;18.208;2023-04-06T11:32:03;101967.38;;;14.51;31.67
21706;BME280;11014;53.076;18.208;2023-04-06T11:34:37;101963.78;;;14.57;32.33
21706;BME280;11014;53.076;18.208;2023-04-06T11:37:11;101957.63;;;14.50;30.60
21706;BME280;11014;53.076;18.208;2023-04-06T11:39:46;101952.81;;;14.34;30.72
21706;BME280;11014;53.076;18.208;2023-04-06T11:42:24;101959.22;;;14.08;30.41
21706;BME280;11014;53.076;18.208;2023-04-06T11:44:57;101949.72;;;13.99;31.16
21706;BME280;11014;53.076;18.208;2023-04-06T11:47:31;101945.75;;;14.02;30.74
21706;BME280;11014;53.076;18.208;2023-04-06T11:50:12;101943.69;;;14.04;30.83
21706;BME280;11014;53.076;18.208;2023-04-06T11:52:42;101945.88;;;14.13;32.35
21706;BME280;11014;53.076;18.208;2023-04-06T11:55:18;101941.69;;;14.17;30.35
21706;BME280;11014;53.076;18.208;2023-04-06T11:57:47;101937.03;;;14.24;31.81
21706;BME280;11014;53.076;18.208;2023-04-06T12:00:16;101930.50;;;14.39;31.43
21706;BME280;11014;53.076;18.208;2023-04-06T12:02:48;101929.97;;;14.66;32.87
21706;BME280;11014;53.076;18.208;2023-04-06T12:05:17;101925.81;;;15.00;32.26
21706;BME280;11014;53.076;18.208;2023-04-06T12:07:46;101920.44;;;15.30;30.27
21706;BME280;11014;53.076;18.208;2023-04-06T12:10:14;101923.97;;;15.72;30.22
21706;BME280;11014;53.076;18.208;2023-04-06T12:12:43;101914.22;;;16.52;29.04
21706;BME280;11014;53.076;18.208;2023-04-06T12:15:11;101907.66;;;17.16;29.37
21706;BME280;11014;53.076;18.208;2023-04-06T12:17:40;101908.44;;;17.56;29.09
21706;BME280;11014;53.076;18.208;2023-04-06T12:20:09;101906.47;;;18.02;27.50
21706;BME280;11014;53.076;18.208;2023-04-06T12:22:53;101902.69;;;18.79;26.72
21706;BME280;11014;53.076;18.208;2023-04-06T12:25:21;101894.16;;;19.46;25.51
21706;BME280;11014;53.076;18.208;2023-04-06T12:27:50;101894.94;;;19.73;24.67
21706;BME280;11014;53.076;18.208;2023-04-06T12:30:18;101901.22;;;19.74;25.00
21706;BME280;11014;53.076;18.208;2023-04-06T12:32:47;101900.03;;;19.96;25.07
21706;BME280;11014;53.076;18.208;2023-04-06T12:35:18;101895.28;;;20.19;24.25
21706;BME280;11014;53.076;18.208;2023-04-06T12:37:47;101896.22;;;19.97;24.41
21706;BME280;11014;53.076;18.208;2023-04-06T12:40:15;101896.44;;;19.91;25.00
21706;BME280;11014;53.076;18.208;2023-04-06T12:42:44;101883.50;;;20.13;24.98
21706;BME280;11014;53.076;18.208;2023-04-06T12:45:13;101880.47;;;20.51;24.66
21706;BME280;11014;53.076;18.208;2023-04-06T12:47:42;101888.88;;;20.40;23.86
21706;BME280;11014;53.076;18.208;2023-04-06T12:50:11;101885.75;;;19.84;23.76
21706;BME280;11014;53.076;18.208;2023-04-06T12:52:39;101880.19;;;20.06;24.57
21706;BME280;11014;53.076;18.208;2023-04-06T12:55:08;101880.28;;;20.68;25.17
21706;BME280;11014;53.076;18.208;2023-04-06T12:57:37;101874.19;;;21.43;23.00
21706;BME280;11014;53.076;18.208;2023-04-06T13:00:05;101878.28;;;21.31;23.11
21706;BME280;11014;53.076;18.208;2023-04-06T13:02:36;101857.41;;;20.84;24.20
21706;BME280;11014;53.076;18.208;2023-04-06T13:05:05;101862.63;;;20.34;25.04
21706;BME280;11014;53.076;18.208;2023-04-06T13:07:34;101863.19;;;19.89;24.42
21706;BME280;11014;53.076;18.208;2023-04-06T13:10:03;101848.34;;;19.75;24.39